Fwn Rapide — PBMT — position and weather

sailwx.info

Track history (hours):
 
Tides and Currents Weather Stations Pressure Air Temp Water Temp Dewpoint Dewpoint Depression Visibility Wind Speed Wind Dir Waves Ship Positions

Fwn Rapide

Last reported at 2017-Nov-18 02:06 UTC. Time now 2017-Nov-24 15:15 UTC.
Position N 30°39' E 032°20'.

Length 145 m; draft 6 m.

Type: Ship (hazmat cat A). MMSI: 244850853.

Date/timePositionNaut miles runAvg speedWind from/ knotsBaromVisibWave heightAir tempDewpointWater temp
2017-Nov-18 02:06N 30°39' E 032°20'4 9.1
2017-Nov-18 01:42N 30°43' E 032°21'2 9.0
2017-Nov-18 01:28N 30°45' E 032°20'4 9.2
2017-Nov-18 01:00N 30°49' E 032°19'5 9.1
2017-Nov-18 00:30N 30°54' E 032°19'12 9.1
2017-Nov-17 23:14N 31°05' E 032°19'3 8.9
2017-Nov-17 22:57N 31°08' E 032°19'5 8.4
2017-Nov-17 22:17N 31°13' E 032°21'3 6.5
2017-Nov-17 21:46N 31°16' E 032°22'3 7.9
2017-Nov-17 21:25N 31°19' E 032°22'4 1.7
2017-Nov-17 18:52N 31°23' E 032°20'1 1.8
2017-Nov-17 18:30N 31°23' E 032°20'2 4.9
2017-Nov-17 18:00N 31°25' E 032°18'812.8
2017-Nov-17 17:23N 31°31' E 032°12'512.6
2017-Nov-17 16:59N 31°35' E 032°08'912.6
2017-Nov-17 16:17N 31°42' E 032°01'312.6
2017-Nov-17 16:00N 31°44' E 031°58'1812.8
2017-Nov-17 14:35N 31°57' E 031°44'112.9
2017-Nov-17 14:30N 31°58' E 031°43'43513.3
2017-Nov-16 05:44N 37°27' E 025°56'312.1
2017-Nov-16 05:31N 37°29' E 025°54'612.9
2017-Nov-16 05:01N 37°36' E 025°53'  
2017-Nov-11 04:45N 37°44' E 024°18'1012.7
2017-Nov-11 03:57N 37°36' E 024°10'38611.8
2017-Nov-09 19:15N 37°49' E 016°03'414.5
2017-Nov-09 18:59N 37°50' E 015°58'714.2
2017-Nov-09 18:30N 37°52' E 015°50'714.1
2017-Nov-09 18:00N 37°55' E 015°42'713.3
2017-Nov-09 17:30N 37°60' E 015°36'714.3
2017-Nov-09 17:01N 38°07' E 015°35'815.5
2017-Nov-09 16:30N 38°15' E 015°37'510.6
2017-Nov-09 16:00N 38°19' E 015°39'713.7
2017-Nov-09 15:30N 38°25' E 015°33'713.8
2017-Nov-09 15:01N 38°30' E 015°27'713.7
2017-Nov-09 14:30N 38°34' E 015°21'713.4
2017-Nov-09 14:00N 38°40' E 015°15'713.5
2017-Nov-09 13:30N 38°44' E 015°09'713.6
2017-Nov-09 13:00N 38°49' E 015°03'  
Track history (hours):
 
Tides and Currents Weather Stations Pressure Air Temp Water Temp Dewpoint Dewpoint Depression Visibility Wind Speed Wind Dir Waves Ship Positions

Fwn Rapide

Last reported at 2017-Nov-18 02:06 UTC. Time now 2017-Nov-24 15:15 UTC.
Position N 30°39' E 032°20'.

Length 145 m; draft 6 m.

Type: Ship (hazmat cat A). MMSI: 244850853.

Date/timePositionNaut miles runAvg speedWind from/ knotsBaromVisibWave heightAir tempDewpointWater temp
2017-Nov-18 02:06N 30°39' E 032°20'4 9.1
2017-Nov-18 01:42N 30°43' E 032°21'2 9.0
2017-Nov-18 01:28N 30°45' E 032°20'4 9.2
2017-Nov-18 01:00N 30°49' E 032°19'5 9.1
2017-Nov-18 00:30N 30°54' E 032°19'12 9.1
2017-Nov-17 23:14N 31°05' E 032°19'3 8.9
2017-Nov-17 22:57N 31°08' E 032°19'5 8.4
2017-Nov-17 22:17N 31°13' E 032°21'3 6.5
2017-Nov-17 21:46N 31°16' E 032°22'3 7.9
2017-Nov-17 21:25N 31°19' E 032°22'4 1.7
2017-Nov-17 18:52N 31°23' E 032°20'1 1.8
2017-Nov-17 18:30N 31°23' E 032°20'2 4.9
2017-Nov-17 18:00N 31°25' E 032°18'812.8
2017-Nov-17 17:23N 31°31' E 032°12'512.6
2017-Nov-17 16:59N 31°35' E 032°08'912.6
2017-Nov-17 16:17N 31°42' E 032°01'312.6
2017-Nov-17 16:00N 31°44' E 031°58'1812.8
2017-Nov-17 14:35N 31°57' E 031°44'112.9
2017-Nov-17 14:30N 31°58' E 031°43'43513.3
2017-Nov-16 05:44N 37°27' E 025°56'312.1
2017-Nov-16 05:31N 37°29' E 025°54'612.9
2017-Nov-16 05:01N 37°36' E 025°53'  
2017-Nov-11 04:45N 37°44' E 024°18'1012.7
2017-Nov-11 03:57N 37°36' E 024°10'38611.8
2017-Nov-09 19:15N 37°49' E 016°03'414.5
2017-Nov-09 18:59N 37°50' E 015°58'714.2
2017-Nov-09 18:30N 37°52' E 015°50'714.1
2017-Nov-09 18:00N 37°55' E 015°42'713.3
2017-Nov-09 17:30N 37°60' E 015°36'714.3
2017-Nov-09 17:01N 38°07' E 015°35'815.5
2017-Nov-09 16:30N 38°15' E 015°37'510.6
2017-Nov-09 16:00N 38°19' E 015°39'713.7
2017-Nov-09 15:30N 38°25' E 015°33'713.8
2017-Nov-09 15:01N 38°30' E 015°27'713.7
2017-Nov-09 14:30N 38°34' E 015°21'713.4
2017-Nov-09 14:00N 38°40' E 015°15'713.5
2017-Nov-09 13:30N 38°44' E 015°09'713.6
2017-Nov-09 13:00N 38°49' E 015°03'  

Dump ship's entire track history